sensor_id;sensor_type;location;lat;lon;timestamp;P1;durP1;ratioP1;P2;durP2;ratioP2
58808;SDS011;44579;51.672;7.834;2022-07-05T00:01:31;8.57;;;1.38;;
58808;SDS011;44579;51.672;7.834;2022-07-05T00:03:58;5.53;;;1.10;;
58808;SDS011;44579;51.672;7.834;2022-07-05T00:06:25;1.63;;;1.13;;
58808;SDS011;44579;51.672;7.834;2022-07-05T00:08:52;1.92;;;1.15;;
58808;SDS011;44579;51.672;7.834;2022-07-05T00:11:18;1.73;;;1.00;;
58808;SDS011;44579;51.672;7.834;2022-07-05T00:13:45;3.55;;;1.20;;
58808;SDS011;44579;51.672;7.834;2022-07-05T00:16:12;1.98;;;1.25;;
58808;SDS011;44579;51.672;7.834;2022-07-05T00:18:39;5.22;;;1.25;;
58808;SDS011;44579;51.672;7.834;2022-07-05T00:21:06;1.17;;;0.85;;
58808;SDS011;44579;51.672;7.834;2022-07-05T00:23:33;4.22;;;1.40;;
58808;SDS011;44579;51.672;7.834;2022-07-05T00:26:00;10.05;;;1.40;;
58808;SDS011;44579;51.672;7.834;2022-07-05T00:28:26;2.30;;;1.00;;
58808;SDS011;44579;51.672;7.834;2022-07-05T00:30:53;3.38;;;1.20;;
58808;SDS011;44579;51.672;7.834;2022-07-05T00:33:20;5.13;;;1.38;;
58808;SDS011;44579;51.672;7.834;2022-07-05T00:35:47;5.20;;;1.45;;
58808;SDS011;44579;51.672;7.834;2022-07-05T00:38:14;2.90;;;1.23;;
58808;SDS011;44579;51.672;7.834;2022-07-05T00:40:42;1.45;;;0.98;;
58808;SDS011;44579;51.672;7.834;2022-07-05T00:43:09;1.85;;;0.95;;
58808;SDS011;44579;51.672;7.834;2022-07-05T00:45:36;8.55;;;1.23;;
58808;SDS011;44579;51.672;7.834;2022-07-05T00:48:03;1.80;;;1.05;;
58808;SDS011;44579;51.672;7.834;2022-07-05T00:50:31;2.15;;;1.05;;
58808;SDS011;44579;51.672;7.834;2022-07-05T00:52:59;2.10;;;1.10;;
58808;SDS011;44579;51.672;7.834;2022-07-05T00:55:26;3.88;;;1.30;;
58808;SDS011;44579;51.672;7.834;2022-07-05T00:57:53;1.98;;;1.20;;
58808;SDS011;44579;51.672;7.834;2022-07-05T01:00:21;2.40;;;1.67;;
58808;SDS011;44579;51.672;7.834;2022-07-05T01:02:48;8.32;;;1.60;;
58808;SDS011;44579;51.672;7.834;2022-07-05T01:05:15;5.05;;;1.80;;
58808;SDS011;44579;51.672;7.834;2022-07-05T01:07:42;4.07;;;1.35;;
58808;SDS011;44579;51.672;7.834;2022-07-05T01:10:09;2.80;;;1.27;;
58808;SDS011;44579;51.672;7.834;2022-07-05T01:12:39;5.40;;;1.60;;
58808;SDS011;44579;51.672;7.834;2022-07-05T01:15:07;6.68;;;1.65;;
58808;SDS011;44579;51.672;7.834;2022-07-05T01:17:35;1.83;;;1.25;;
58808;SDS011;44579;51.672;7.834;2022-07-05T01:20:06;1.85;;;1.25;;
58808;SDS011;44579;51.672;7.834;2022-07-05T01:22:53;6.95;;;1.48;;
58808;SDS011;44579;51.672;7.834;2022-07-05T01:25:26;2.45;;;1.30;;
58808;SDS011;44579;51.672;7.834;2022-07-05T01:27:54;3.75;;;1.50;;
58808;SDS011;44579;51.672;7.834;2022-07-05T01:30:22;6.03;;;1.50;;
58808;SDS011;44579;51.672;7.834;2022-07-05T01:35:18;4.80;;;1.45;;
58808;SDS011;44579;51.672;7.834;2022-07-05T01:37:49;1.90;;;1.10;;
58808;SDS011;44579;51.672;7.834;2022-07-05T01:40:18;1.83;;;1.30;;
58808;SDS011;44579;51.672;7.834;2022-07-05T01:42:46;7.00;;;1.40;;
58808;SDS011;44579;51.672;7.834;2022-07-05T01:45:14;5.88;;;1.50;;
58808;SDS011;44579;51.672;7.834;2022-07-05T01:48:02;2.50;;;1.30;;
58808;SDS011;44579;51.672;7.834;2022-07-05T01:50:34;5.40;;;1.50;;
58808;SDS011;44579;51.672;7.834;2022-07-05T01:53:06;1.88;;;1.20;;
58808;SDS011;44579;51.672;7.834;2022-07-05T01:55:37;5.70;;;1.30;;
58808;SDS011;44579;51.672;7.834;2022-07-05T01:58:05;3.75;;;1.25;;
58808;SDS011;44579;51.672;7.834;2022-07-05T02:00:47;3.60;;;1.30;;
58808;SDS011;44579;51.672;7.834;2022-07-05T02:03:15;3.28;;;1.35;;
58808;SDS011;44579;51.672;7.834;2022-07-05T02:05:54;2.85;;;1.50;;
58808;SDS011;44579;51.672;7.834;2022-07-05T02:08:25;1.88;;;1.38;;
58808;SDS011;44579;51.672;7.834;2022-07-05T02:10:55;2.95;;;1.50;;
58808;SDS011;44579;51.672;7.834;2022-07-05T02:13:23;3.67;;;1.42;;
58808;SDS011;44579;51.672;7.834;2022-07-05T02:15:50;5.80;;;1.42;;
58808;SDS011;44579;51.672;7.834;2022-07-05T02:18:21;1.85;;;1.30;;
58808;SDS011;44579;51.672;7.834;2022-07-05T02:21:00;1.67;;;1.17;;
58808;SDS011;44579;51.672;7.834;2022-07-05T02:23:27;4.63;;;1.83;;
58808;SDS011;44579;51.672;7.834;2022-07-05T02:25:54;4.82;;;1.63;;
58808;SDS011;44579;51.672;7.834;2022-07-05T02:28:21;3.75;;;1.83;;
58808;SDS011;44579;51.672;7.834;2022-07-05T02:30:49;3.90;;;1.55;;
58808;SDS011;44579;51.672;7.834;2022-07-05T02:33:17;5.18;;;1.77;;
58808;SDS011;44579;51.672;7.834;2022-07-05T02:35:44;6.05;;;1.80;;
58808;SDS011;44579;51.672;7.834;2022-07-05T02:38:11;4.68;;;1.50;;
58808;SDS011;44579;51.672;7.834;2022-07-05T02:40:39;2.47;;;1.33;;
58808;SDS011;44579;51.672;7.834;2022-07-05T02:43:05;3.58;;;1.38;;
58808;SDS011;44579;51.672;7.834;2022-07-05T02:45:34;4.28;;;1.98;;
58808;SDS011;44579;51.672;7.834;2022-07-05T02:48:01;2.10;;;1.52;;
58808;SDS011;44579;51.672;7.834;2022-07-05T02:50:31;4.05;;;1.83;;
58808;SDS011;44579;51.672;7.834;2022-07-05T02:52:57;2.90;;;1.90;;
58808;SDS011;44579;51.672;7.834;2022-07-05T02:55:24;3.08;;;1.77;;
58808;SDS011;44579;51.672;7.834;2022-07-05T02:57:52;5.28;;;1.70;;
58808;SDS011;44579;51.672;7.834;2022-07-05T03:00:19;3.58;;;1.90;;
58808;SDS011;44579;51.672;7.834;2022-07-05T03:02:47;6.13;;;1.90;;
58808;SDS011;44579;51.672;7.834;2022-07-05T03:05:15;5.45;;;1.88;;
58808;SDS011;44579;51.672;7.834;2022-07-05T03:07:50;2.65;;;1.60;;
58808;SDS011;44579;51.672;7.834;2022-07-05T03:12:46;4.20;;;2.08;;
58808;SDS011;44579;51.672;7.834;2022-07-05T03:17:41;3.10;;;1.83;;
58808;SDS011;44579;51.672;7.834;2022-07-05T03:20:09;3.22;;;1.73;;
58808;SDS011;44579;51.672;7.834;2022-07-05T03:22:36;4.50;;;2.20;;
58808;SDS011;44579;51.672;7.834;2022-07-05T03:27:31;3.92;;;1.95;;
58808;SDS011;44579;51.672;7.834;2022-07-05T03:29:59;4.95;;;1.85;;
58808;SDS011;44579;51.672;7.834;2022-07-05T03:32:31;4.55;;;2.20;;
58808;SDS011;44579;51.672;7.834;2022-07-05T03:37:27;5.55;;;2.08;;
58808;SDS011;44579;51.672;7.834;2022-07-05T03:39:54;6.15;;;2.45;;
58808;SDS011;44579;51.672;7.834;2022-07-05T03:42:21;4.82;;;2.20;;
58808;SDS011;44579;51.672;7.834;2022-07-05T03:44:48;5.63;;;2.30;;
58808;SDS011;44579;51.672;7.834;2022-07-05T03:47:16;3.05;;;1.83;;
58808;SDS011;44579;51.672;7.834;2022-07-05T03:49:44;5.03;;;2.10;;
58808;SDS011;44579;51.672;7.834;2022-07-05T03:52:12;5.75;;;2.42;;
58808;SDS011;44579;51.672;7.834;2022-07-05T03:54:40;4.68;;;2.15;;
58808;SDS011;44579;51.672;7.834;2022-07-05T03:57:08;3.78;;;2.60;;
58808;SDS011;44579;51.672;7.834;2022-07-05T03:59:35;6.97;;;2.33;;
58808;SDS011;44579;51.672;7.834;2022-07-05T04:02:02;4.57;;;2.15;;
58808;SDS011;44579;51.672;7.834;2022-07-05T04:04:29;3.35;;;2.00;;
58808;SDS011;44579;51.672;7.834;2022-07-05T04:06:56;8.18;;;2.40;;
58808;SDS011;44579;51.672;7.834;2022-07-05T04:09:23;4.63;;;2.40;;
58808;SDS011;44579;51.672;7.834;2022-07-05T04:11:50;4.53;;;2.33;;
58808;SDS011;44579;51.672;7.834;2022-07-05T04:14:18;4.45;;;2.50;;
58808;SDS011;44579;51.672;7.834;2022-07-05T04:16:45;3.58;;;2.40;;
58808;SDS011;44579;51.672;7.834;2022-07-05T04:19:13;8.07;;;2.90;;
58808;SDS011;44579;51.672;7.834;2022-07-05T04:24:08;4.78;;;2.28;;
58808;SDS011;44579;51.672;7.834;2022-07-05T04:26:37;20.05;;;2.70;;
58808;SDS011;44579;51.672;7.834;2022-07-05T04:31:35;7.65;;;2.75;;
58808;SDS011;44579;51.672;7.834;2022-07-05T04:34:02;6.00;;;2.60;;
58808;SDS011;44579;51.672;7.834;2022-07-05T04:36:32;3.63;;;2.45;;
58808;SDS011;44579;51.672;7.834;2022-07-05T04:39:01;5.18;;;2.70;;
58808;SDS011;44579;51.672;7.834;2022-07-05T04:41:30;7.00;;;2.97;;
58808;SDS011;44579;51.672;7.834;2022-07-05T04:43:57;5.75;;;2.47;;
58808;SDS011;44579;51.672;7.834;2022-07-05T04:46:25;8.43;;;3.25;;
58808;SDS011;44579;51.672;7.834;2022-07-05T04:48:53;7.60;;;2.83;;
58808;SDS011;44579;51.672;7.834;2022-07-05T04:51:21;8.70;;;3.00;;
58808;SDS011;44579;51.672;7.834;2022-07-05T04:53:48;7.75;;;3.03;;
58808;SDS011;44579;51.672;7.834;2022-07-05T04:56:15;7.50;;;3.10;;
58808;SDS011;44579;51.672;7.834;2022-07-05T04:58:43;16.85;;;3.22;;
58808;SDS011;44579;51.672;7.834;2022-07-05T05:01:10;9.68;;;3.20;;
58808;SDS011;44579;51.672;7.834;2022-07-05T05:03:37;7.50;;;3.15;;
58808;SDS011;44579;51.672;7.834;2022-07-05T05:06:04;5.28;;;2.95;;
58808;SDS011;44579;51.672;7.834;2022-07-05T05:08:31;6.30;;;2.92;;
58808;SDS011;44579;51.672;7.834;2022-07-05T05:10:57;3.92;;;2.80;;
58808;SDS011;44579;51.672;7.834;2022-07-05T05:13:24;4.55;;;3.28;;
58808;SDS011;44579;51.672;7.834;2022-07-05T05:15:51;6.35;;;3.05;;
58808;SDS011;44579;51.672;7.834;2022-07-05T05:18:18;6.00;;;3.15;;
58808;SDS011;44579;51.672;7.834;2022-07-05T05:20:47;4.40;;;2.78;;
58808;SDS011;44579;51.672;7.834;2022-07-05T05:23:14;8.18;;;2.80;;
58808;SDS011;44579;51.672;7.834;2022-07-05T05:25:40;6.43;;;2.95;;
58808;SDS011;44579;51.672;7.834;2022-07-05T05:28:07;4.90;;;2.80;;
58808;SDS011;44579;51.672;7.834;2022-07-05T05:30:34;3.58;;;2.40;;
58808;SDS011;44579;51.672;7.834;2022-07-05T05:33:01;5.53;;;2.35;;
58808;SDS011;44579;51.672;7.834;2022-07-05T05:35:27;4.22;;;2.30;;
58808;SDS011;44579;51.672;7.834;2022-07-05T05:37:55;3.53;;;2.00;;
58808;SDS011;44579;51.672;7.834;2022-07-05T05:42:50;5.32;;;2.00;;
58808;SDS011;44579;51.672;7.834;2022-07-05T05:45:18;11.20;;;2.47;;
58808;SDS011;44579;51.672;7.834;2022-07-05T05:47:46;5.70;;;1.95;;
58808;SDS011;44579;51.672;7.834;2022-07-05T05:50:18;7.00;;;2.20;;
58808;SDS011;44579;51.672;7.834;2022-07-05T05:52:47;2.65;;;1.88;;
58808;SDS011;44579;51.672;7.834;2022-07-05T05:55:13;3.05;;;2.00;;
58808;SDS011;44579;51.672;7.834;2022-07-05T05:57:40;5.72;;;2.15;;
58808;SDS011;44579;51.672;7.834;2022-07-05T06:00:08;4.22;;;1.70;;
58808;SDS011;44579;51.672;7.834;2022-07-05T06:02:38;4.75;;;2.33;;
58808;SDS011;44579;51.672;7.834;2022-07-05T06:05:06;4.38;;;2.30;;
58808;SDS011;44579;51.672;7.834;2022-07-05T06:07:47;3.60;;;1.90;;
58808;SDS011;44579;51.672;7.834;2022-07-05T06:10:18;4.75;;;1.98;;
58808;SDS011;44579;51.672;7.834;2022-07-05T06:12:47;5.65;;;1.88;;
58808;SDS011;44579;51.672;7.834;2022-07-05T06:15:14;4.00;;;2.03;;
58808;SDS011;44579;51.672;7.834;2022-07-05T06:17:42;2.80;;;1.77;;
58808;SDS011;44579;51.672;7.834;2022-07-05T06:20:19;3.70;;;2.08;;
58808;SDS011;44579;51.672;7.834;2022-07-05T06:22:51;3.72;;;2.10;;
58808;SDS011;44579;51.672;7.834;2022-07-05T06:25:18;3.80;;;1.45;;
58808;SDS011;44579;51.672;7.834;2022-07-05T06:27:53;6.70;;;1.77;;
58808;SDS011;44579;51.672;7.834;2022-07-05T06:30:25;4.57;;;1.40;;
58808;SDS011;44579;51.672;7.834;2022-07-05T06:32:53;2.45;;;1.42;;
58808;SDS011;44579;51.672;7.834;2022-07-05T06:35:20;4.68;;;1.50;;
58808;SDS011;44579;51.672;7.834;2022-07-05T06:37:49;6.90;;;1.95;;
58808;SDS011;44579;51.672;7.834;2022-07-05T06:40:22;3.40;;;1.38;;
58808;SDS011;44579;51.672;7.834;2022-07-05T06:42:54;6.07;;;1.60;;
58808;SDS011;44579;51.672;7.834;2022-07-05T06:45:29;8.68;;;1.60;;
58808;SDS011;44579;51.672;7.834;2022-07-05T06:47:58;3.38;;;1.60;;
58808;SDS011;44579;51.672;7.834;2022-07-05T06:50:30;7.07;;;1.58;;
58808;SDS011;44579;51.672;7.834;2022-07-05T06:52:58;5.25;;;1.48;;
58808;SDS011;44579;51.672;7.834;2022-07-05T06:55:25;4.82;;;1.40;;
58808;SDS011;44579;51.672;7.834;2022-07-05T06:57:57;5.38;;;1.00;;
58808;SDS011;44579;51.672;7.834;2022-07-05T07:00:41;2.28;;;0.90;;
58808;SDS011;44579;51.672;7.834;2022-07-05T07:03:28;4.82;;;1.30;;
58808;SDS011;44579;51.672;7.834;2022-07-05T07:06:16;3.65;;;1.17;;
58808;SDS011;44579;51.672;7.834;2022-07-05T07:08:43;2.22;;;1.05;;
58808;SDS011;44579;51.672;7.834;2022-07-05T07:11:29;3.65;;;1.20;;
58808;SDS011;44579;51.672;7.834;2022-07-05T07:13:56;3.67;;;1.10;;
58808;SDS011;44579;51.672;7.834;2022-07-05T07:16:23;1.90;;;0.90;;
58808;SDS011;44579;51.672;7.834;2022-07-05T07:18:50;4.68;;;1.10;;
58808;SDS011;44579;51.672;7.834;2022-07-05T07:21:37;1.88;;;0.90;;
58808;SDS011;44579;51.672;7.834;2022-07-05T07:24:05;2.35;;;0.90;;
58808;SDS011;44579;51.672;7.834;2022-07-05T07:26:33;3.60;;;0.80;;
58808;SDS011;44579;51.672;7.834;2022-07-05T07:29:19;3.17;;;0.98;;
58808;SDS011;44579;51.672;7.834;2022-07-05T07:31:46;1.15;;;0.63;;
58808;SDS011;44579;51.672;7.834;2022-07-05T07:34:13;2.45;;;0.80;;
58808;SDS011;44579;51.672;7.834;2022-07-05T07:39:07;6.60;;;0.90;;
58808;SDS011;44579;51.672;7.834;2022-07-05T07:41:34;2.80;;;0.90;;
58808;SDS011;44579;51.672;7.834;2022-07-05T07:44:01;3.38;;;0.93;;
58808;SDS011;44579;51.672;7.834;2022-07-05T07:46:28;2.85;;;0.90;;
58808;SDS011;44579;51.672;7.834;2022-07-05T07:48:55;2.35;;;0.90;;
58808;SDS011;44579;51.672;7.834;2022-07-05T07:51:22;1.58;;;0.82;;
58808;SDS011;44579;51.672;7.834;2022-07-05T07:53:49;2.00;;;0.88;;
58808;SDS011;44579;51.672;7.834;2022-07-05T07:56:16;4.75;;;0.90;;
58808;SDS011;44579;51.672;7.834;2022-07-05T07:58:43;1.95;;;0.80;;
58808;SDS011;44579;51.672;7.834;2022-07-05T08:01:10;3.13;;;1.08;;
58808;SDS011;44579;51.672;7.834;2022-07-05T08:03:38;4.55;;;1.30;;
58808;SDS011;44579;51.672;7.834;2022-07-05T08:06:06;3.00;;;1.17;;
58808;SDS011;44579;51.672;7.834;2022-07-05T08:08:34;2.15;;;0.73;;
58808;SDS011;44579;51.672;7.834;2022-07-05T08:11:01;5.38;;;1.30;;
58808;SDS011;44579;51.672;7.834;2022-07-05T08:13:28;2.08;;;1.05;;
58808;SDS011;44579;51.672;7.834;2022-07-05T08:15:55;4.15;;;1.35;;
58808;SDS011;44579;51.672;7.834;2022-07-05T08:18:23;2.60;;;1.25;;
58808;SDS011;44579;51.672;7.834;2022-07-05T08:21:09;4.83;;;1.50;;
58808;SDS011;44579;51.672;7.834;2022-07-05T08:23:55;2.73;;;0.93;;
58808;SDS011;44579;51.672;7.834;2022-07-05T08:26:22;7.63;;;1.15;;
58808;SDS011;44579;51.672;7.834;2022-07-05T08:28:48;3.60;;;1.10;;
58808;SDS011;44579;51.672;7.834;2022-07-05T08:31:34;10.63;;;1.33;;
58808;SDS011;44579;51.672;7.834;2022-07-05T08:34:03;5.55;;;1.45;;
58808;SDS011;44579;51.672;7.834;2022-07-05T08:36:30;6.30;;;1.40;;
58808;SDS011;44579;51.672;7.834;2022-07-05T08:38:57;7.10;;;1.10;;
58808;SDS011;44579;51.672;7.834;2022-07-05T08:41:23;5.03;;;1.23;;
58808;SDS011;44579;51.672;7.834;2022-07-05T08:43:50;5.97;;;1.30;;
58808;SDS011;44579;51.672;7.834;2022-07-05T08:48:49;1.77;;;0.73;;
58808;SDS011;44579;51.672;7.834;2022-07-05T08:51:19;1.30;;;0.90;;
58808;SDS011;44579;51.672;7.834;2022-07-05T08:53:48;3.38;;;0.85;;
58808;SDS011;44579;51.672;7.834;2022-07-05T08:56:16;1.25;;;0.73;;
58808;SDS011;44579;51.672;7.834;2022-07-05T08:58:59;2.17;;;0.88;;
58808;SDS011;44579;51.672;7.834;2022-07-05T09:01:26;3.33;;;1.30;;
58808;SDS011;44579;51.672;7.834;2022-07-05T09:03:59;4.10;;;0.95;;
58808;SDS011;44579;51.672;7.834;2022-07-05T09:06:27;4.03;;;1.15;;
58808;SDS011;44579;51.672;7.834;2022-07-05T09:08:56;5.50;;;1.10;;
58808;SDS011;44579;51.672;7.834;2022-07-05T09:11:28;3.08;;;1.17;;
58808;SDS011;44579;51.672;7.834;2022-07-05T09:16:55;2.00;;;0.77;;
58808;SDS011;44579;51.672;7.834;2022-07-05T09:19:26;2.88;;;1.00;;
58808;SDS011;44579;51.672;7.834;2022-07-05T09:22:01;3.50;;;1.27;;
58808;SDS011;44579;51.672;7.834;2022-07-05T09:24:30;4.20;;;0.70;;
58808;SDS011;44579;51.672;7.834;2022-07-05T09:27:03;5.63;;;1.60;;
58808;SDS011;44579;51.672;7.834;2022-07-05T09:29:31;2.40;;;1.08;;
58808;SDS011;44579;51.672;7.834;2022-07-05T09:32:23;6.07;;;0.90;;
58808;SDS011;44579;51.672;7.834;2022-07-05T09:34:51;3.65;;;0.40;;
58808;SDS011;44579;51.672;7.834;2022-07-05T09:37:17;2.90;;;0.98;;
58808;SDS011;44579;51.672;7.834;2022-07-05T09:39:44;2.95;;;1.02;;
58808;SDS011;44579;51.672;7.834;2022-07-05T09:42:13;3.88;;;0.90;;
58808;SDS011;44579;51.672;7.834;2022-07-05T09:47:26;2.58;;;0.90;;
58808;SDS011;44579;51.672;7.834;2022-07-05T09:49:54;6.95;;;1.35;;
58808;SDS011;44579;51.672;7.834;2022-07-05T09:52:39;4.75;;;1.00;;
58808;SDS011;44579;51.672;7.834;2022-07-05T09:55:08;4.78;;;1.15;;
58808;SDS011;44579;51.672;7.834;2022-07-05T09:57:43;3.58;;;0.85;;
58808;SDS011;44579;51.672;7.834;2022-07-05T10:00:11;1.52;;;0.77;;
58808;SDS011;44579;51.672;7.834;2022-07-05T10:05:12;2.30;;;0.90;;
58808;SDS011;44579;51.672;7.834;2022-07-05T10:07:56;3.28;;;0.80;;
58808;SDS011;44579;51.672;7.834;2022-07-05T10:10:29;3.35;;;0.80;;
58808;SDS011;44579;51.672;7.834;2022-07-05T10:13:06;3.80;;;0.90;;
58808;SDS011;44579;51.672;7.834;2022-07-05T10:15:34;1.45;;;0.70;;
58808;SDS011;44579;51.672;7.834;2022-07-05T10:18:11;4.03;;;1.10;;
58808;SDS011;44579;51.672;7.834;2022-07-05T10:20:42;2.35;;;0.90;;
58808;SDS011;44579;51.672;7.834;2022-07-05T10:23:14;5.93;;;1.15;;
58808;SDS011;44579;51.672;7.834;2022-07-05T10:25:43;4.50;;;1.23;;
58808;SDS011;44579;51.672;7.834;2022-07-05T10:28:15;4.30;;;0.95;;
58808;SDS011;44579;51.672;7.834;2022-07-05T10:30:49;3.38;;;1.02;;
58808;SDS011;44579;51.672;7.834;2022-07-05T10:33:17;4.47;;;0.93;;
58808;SDS011;44579;51.672;7.834;2022-07-05T10:35:47;2.15;;;0.80;;
58808;SDS011;44579;51.672;7.834;2022-07-05T10:38:14;1.73;;;1.00;;
58808;SDS011;44579;51.672;7.834;2022-07-05T10:43:09;2.55;;;1.05;;
58808;SDS011;44579;51.672;7.834;2022-07-05T10:45:39;2.50;;;1.00;;
58808;SDS011;44579;51.672;7.834;2022-07-05T10:48:13;2.58;;;0.98;;
58808;SDS011;44579;51.672;7.834;2022-07-05T10:50:47;2.63;;;1.08;;
58808;SDS011;44579;51.672;7.834;2022-07-05T10:53:14;1.55;;;0.80;;
58808;SDS011;44579;51.672;7.834;2022-07-05T10:55:49;2.83;;;0.60;;
58808;SDS011;44579;51.672;7.834;2022-07-05T10:58:39;6.45;;;1.30;;
58808;SDS011;44579;51.672;7.834;2022-07-05T11:03:46;2.83;;;0.82;;
58808;SDS011;44579;51.672;7.834;2022-07-05T11:06:26;2.95;;;1.10;;
58808;SDS011;44579;51.672;7.834;2022-07-05T11:11:29;3.03;;;1.10;;
58808;SDS011;44579;51.672;7.834;2022-07-05T11:16:47;4.95;;;1.05;;
58808;SDS011;44579;51.672;7.834;2022-07-05T11:20:01;3.72;;;1.00;;
58808;SDS011;44579;51.672;7.834;2022-07-05T11:22:37;1.40;;;0.90;;
58808;SDS011;44579;51.672;7.834;2022-07-05T11:25:08;1.15;;;0.70;;
58808;SDS011;44579;51.672;7.834;2022-07-05T11:27:36;1.80;;;0.80;;
58808;SDS011;44579;51.672;7.834;2022-07-05T11:30:47;5.20;;;0.80;;
58808;SDS011;44579;51.672;7.834;2022-07-05T11:33:25;1.95;;;1.10;;
58808;SDS011;44579;51.672;7.834;2022-07-05T11:35:55;1.00;;;0.80;;
58808;SDS011;44579;51.672;7.834;2022-07-05T11:38:23;5.72;;;1.05;;
58808;SDS011;44579;51.672;7.834;2022-07-05T11:41:20;4.35;;;0.57;;
58808;SDS011;44579;51.672;7.834;2022-07-05T11:43:47;2.70;;;0.90;;
58808;SDS011;44579;51.672;7.834;2022-07-05T11:46:23;4.05;;;0.98;;
58808;SDS011;44579;51.672;7.834;2022-07-05T11:49:10;5.82;;;1.40;;
58808;SDS011;44579;51.672;7.834;2022-07-05T11:51:37;3.55;;;1.02;;
58808;SDS011;44579;51.672;7.834;2022-07-05T11:54:07;2.22;;;1.05;;
58808;SDS011;44579;51.672;7.834;2022-07-05T11:56:43;2.30;;;0.98;;
58808;SDS011;44579;51.672;7.834;2022-07-05T11:59:17;6.35;;;0.80;;
58808;SDS011;44579;51.672;7.834;2022-07-05T12:01:45;3.45;;;0.70;;
58808;SDS011;44579;51.672;7.834;2022-07-05T12:04:20;1.70;;;0.70;;
58808;SDS011;44579;51.672;7.834;2022-07-05T12:06:57;4.20;;;1.08;;
58808;SDS011;44579;51.672;7.834;2022-07-05T12:11:53;10.32;;;1.00;;
58808;SDS011;44579;51.672;7.834;2022-07-05T12:17:17;4.43;;;0.68;;
58808;SDS011;44579;51.672;7.834;2022-07-05T12:19:51;1.70;;;0.80;;
58808;SDS011;44579;51.672;7.834;2022-07-05T12:22:35;1.30;;;0.60;;
58808;SDS011;44579;51.672;7.834;2022-07-05T12:25:07;7.57;;;1.10;;
58808;SDS011;44579;51.672;7.834;2022-07-05T12:27:38;5.45;;;1.00;;
58808;SDS011;44579;51.672;7.834;2022-07-05T12:30:06;1.58;;;0.70;;
58808;SDS011;44579;51.672;7.834;2022-07-05T12:35:27;5.43;;;0.95;;
58808;SDS011;44579;51.672;7.834;2022-07-05T12:38:11;1.25;;;0.98;;
58808;SDS011;44579;51.672;7.834;2022-07-05T12:40:42;1.55;;;0.80;;
58808;SDS011;44579;51.672;7.834;2022-07-05T12:43:12;7.60;;;1.00;;
58808;SDS011;44579;51.672;7.834;2022-07-05T12:45:41;3.92;;;0.90;;
58808;SDS011;44579;51.672;7.834;2022-07-05T12:48:10;1.75;;;0.75;;
58808;SDS011;44579;51.672;7.834;2022-07-05T12:50:48;24.73;;;2.08;;
58808;SDS011;44579;51.672;7.834;2022-07-05T12:53:46;2.75;;;1.00;;
58808;SDS011;44579;51.672;7.834;2022-07-05T12:56:33;3.10;;;1.08;;
58808;SDS011;44579;51.672;7.834;2022-07-05T12:59:38;3.90;;;1.15;;
58808;SDS011;44579;51.672;7.834;2022-07-05T13:02:09;2.55;;;1.00;;
58808;SDS011;44579;51.672;7.834;2022-07-05T13:04:51;1.90;;;0.70;;
58808;SDS011;44579;51.672;7.834;2022-07-05T13:07:25;1.67;;;0.93;;
58808;SDS011;44579;51.672;7.834;2022-07-05T13:10:12;3.13;;;1.30;;
58808;SDS011;44579;51.672;7.834;2022-07-05T13:12:43;3.50;;;1.20;;
58808;SDS011;44579;51.672;7.834;2022-07-05T13:15:10;3.28;;;1.08;;
58808;SDS011;44579;51.672;7.834;2022-07-05T13:17:41;4.03;;;1.00;;
58808;SDS011;44579;51.672;7.834;2022-07-05T13:20:09;4.05;;;0.88;;
58808;SDS011;44579;51.672;7.834;2022-07-05T13:22:37;7.07;;;1.50;;
58808;SDS011;44579;51.672;7.834;2022-07-05T13:25:04;2.22;;;1.17;;
58808;SDS011;44579;51.672;7.834;2022-07-05T13:27:31;3.28;;;1.20;;
58808;SDS011;44579;51.672;7.834;2022-07-05T13:32:25;2.70;;;1.10;;
58808;SDS011;44579;51.672;7.834;2022-07-05T13:37:19;3.45;;;1.30;;
58808;SDS011;44579;51.672;7.834;2022-07-05T13:39:45;1.92;;;1.10;;
58808;SDS011;44579;51.672;7.834;2022-07-05T13:42:12;1.67;;;1.00;;
58808;SDS011;44579;51.672;7.834;2022-07-05T13:44:39;3.90;;;1.00;;
58808;SDS011;44579;51.672;7.834;2022-07-05T13:47:06;2.45;;;0.77;;
58808;SDS011;44579;51.672;7.834;2022-07-05T13:49:33;1.42;;;0.85;;
58808;SDS011;44579;51.672;7.834;2022-07-05T13:52:00;1.92;;;0.90;;
58808;SDS011;44579;51.672;7.834;2022-07-05T13:54:29;2.22;;;0.90;;
58808;SDS011;44579;51.672;7.834;2022-07-05T13:56:56;2.08;;;1.00;;
58808;SDS011;44579;51.672;7.834;2022-07-05T13:59:22;3.97;;;0.73;;
58808;SDS011;44579;51.672;7.834;2022-07-05T14:01:50;1.38;;;0.70;;
58808;SDS011;44579;51.672;7.834;2022-07-05T14:06:44;2.17;;;1.05;;
58808;SDS011;44579;51.672;7.834;2022-07-05T14:09:12;2.72;;;0.80;;
58808;SDS011;44579;51.672;7.834;2022-07-05T14:11:39;2.72;;;0.80;;
58808;SDS011;44579;51.672;7.834;2022-07-05T14:14:05;5.22;;;1.23;;
58808;SDS011;44579;51.672;7.834;2022-07-05T14:16:32;4.20;;;1.40;;
58808;SDS011;44579;51.672;7.834;2022-07-05T14:18:59;4.40;;;1.08;;
58808;SDS011;44579;51.672;7.834;2022-07-05T14:21:26;1.85;;;1.10;;
58808;SDS011;44579;51.672;7.834;2022-07-05T14:24:03;5.30;;;1.52;;
58808;SDS011;44579;51.672;7.834;2022-07-05T14:26:31;3.15;;;1.30;;
58808;SDS011;44579;51.672;7.834;2022-07-05T14:28:59;3.67;;;1.08;;
58808;SDS011;44579;51.672;7.834;2022-07-05T14:31:27;3.75;;;1.17;;
58808;SDS011;44579;51.672;7.834;2022-07-05T14:33:57;3.28;;;1.42;;
58808;SDS011;44579;51.672;7.834;2022-07-05T14:36:24;4.80;;;1.13;;
58808;SDS011;44579;51.672;7.834;2022-07-05T14:38:51;2.45;;;1.17;;
58808;SDS011;44579;51.672;7.834;2022-07-05T14:41:18;1.17;;;0.85;;
58808;SDS011;44579;51.672;7.834;2022-07-05T14:43:44;2.28;;;1.10;;
58808;SDS011;44579;51.672;7.834;2022-07-05T14:46:11;2.10;;;1.20;;
58808;SDS011;44579;51.672;7.834;2022-07-05T14:48:44;1.60;;;0.90;;
58808;SDS011;44579;51.672;7.834;2022-07-05T14:51:11;1.95;;;1.27;;
58808;SDS011;44579;51.672;7.834;2022-07-05T14:53:38;3.22;;;1.52;;
58808;SDS011;44579;51.672;7.834;2022-07-05T14:56:08;3.25;;;1.00;;
58808;SDS011;44579;51.672;7.834;2022-07-05T14:58:35;1.10;;;0.80;;
58808;SDS011;44579;51.672;7.834;2022-07-05T15:01:02;1.92;;;1.10;;
58808;SDS011;44579;51.672;7.834;2022-07-05T15:05:56;1.23;;;0.93;;
58808;SDS011;44579;51.672;7.834;2022-07-05T15:08:22;1.10;;;0.93;;
58808;SDS011;44579;51.672;7.834;2022-07-05T15:10:51;3.40;;;1.08;;
58808;SDS011;44579;51.672;7.834;2022-07-05T15:13:18;3.97;;;1.35;;
58808;SDS011;44579;51.672;7.834;2022-07-05T15:15:46;2.95;;;1.73;;
58808;SDS011;44579;51.672;7.834;2022-07-05T15:18:13;2.88;;;1.05;;
58808;SDS011;44579;51.672;7.834;2022-07-05T15:20:40;3.22;;;1.52;;
58808;SDS011;44579;51.672;7.834;2022-07-05T15:23:06;3.78;;;1.42;;
58808;SDS011;44579;51.672;7.834;2022-07-05T15:25:33;5.78;;;1.25;;
58808;SDS011;44579;51.672;7.834;2022-07-05T15:28:00;1.65;;;1.00;;
58808;SDS011;44579;51.672;7.834;2022-07-05T15:30:27;2.75;;;1.10;;
58808;SDS011;44579;51.672;7.834;2022-07-05T15:32:54;3.03;;;1.40;;
58808;SDS011;44579;51.672;7.834;2022-07-05T15:35:26;4.80;;;1.73;;
58808;SDS011;44579;51.672;7.834;2022-07-05T15:37:53;4.18;;;1.50;;
58808;SDS011;44579;51.672;7.834;2022-07-05T15:40:20;4.82;;;1.40;;
58808;SDS011;44579;51.672;7.834;2022-07-05T15:42:47;3.75;;;1.35;;
58808;SDS011;44579;51.672;7.834;2022-07-05T15:45:13;4.35;;;1.02;;
58808;SDS011;44579;51.672;7.834;2022-07-05T15:47:40;4.43;;;1.42;;
58808;SDS011;44579;51.672;7.834;2022-07-05T15:50:08;14.32;;;1.70;;
58808;SDS011;44579;51.672;7.834;2022-07-05T15:52:36;6.95;;;1.83;;
58808;SDS011;44579;51.672;7.834;2022-07-05T15:57:31;4.50;;;1.65;;
58808;SDS011;44579;51.672;7.834;2022-07-05T16:07:18;8.70;;;2.13;;
58808;SDS011;44579;51.672;7.834;2022-07-05T16:09:45;8.02;;;2.30;;
58808;SDS011;44579;51.672;7.834;2022-07-05T16:12:36;5.95;;;2.47;;
58808;SDS011;44579;51.672;7.834;2022-07-05T16:15:03;3.38;;;1.80;;
58808;SDS011;44579;51.672;7.834;2022-07-05T16:17:31;5.63;;;1.95;;